Whamcloud - gitweb
LU-9679 lustre: use LIST_HEAD() for local lists.
[fs/lustre-release.git] / lustre / mdt / mdt_handler.c
2020-02-08 Mr NeilBrownLU-9679 lustre: use LIST_HEAD() for local lists. 55/36955/4
2020-02-08 Mr NeilBrownLU-9679 general: add missing spaces to folded strings. 53/36653/5
2020-01-18 Mikhail PershinLU-13115 mdt: handle mdt_pack_sectx_in_reply() errors 48/37148/4
2019-12-20 NeilBrownLU-8066 obdclass: don't copy ops structures in to new... 87/35687/8
2019-12-16 Andreas DilgerLU-12967 tgt: clean up sync_on_cancel references 54/36754/3
2019-12-14 Wang ShilongLU-12826 mdt: limit root to change project state by... 44/36544/10
2019-12-06 Sebastien BuissonLU-12895 mdt: check if object exists first 29/36629/5
2019-12-06 Shaun TancheffLU-12904 build: Support for gcc -Wimplicit-fallthrough 77/36577/2
2019-10-04 Lai SiyaoLU-11967 mdt: reint layout_change in standard way 65/35465/6
2019-09-30 Andriy SkulyshLU-11444 ptlrpc: resend may corrupt the data 14/35114/15
2019-09-20 Qian YingjinLU-11367 som: integrate LSOM with lfs find 67/35167/22
2019-09-20 NeilBrownLU-6142 lustre: introduce CONFIG_LUSTRE_FS_POSIX_ACL 85/36085/5
2019-09-09 Andreas DilgerLU-12368 ptlrpc: make DEBUG_REQ messages consistent 11/35311/13
2019-09-03 Shaun TancheffLU-12635 build: Support for gcc -Wimplicit-fallthrough 08/35708/4
2019-09-03 James SimmonsLU-9859 mdt: replace CLASSERT with BUILD_BUG_ON 19/32219/4
2019-08-21 Hongchao ZhangLU-12615 mdt: check mdt_object 64/35764/2
2019-08-09 Alex ZhuravlevLU-11456 mdt: mdt_object_sync() can skip sync 66/33266/14
2019-07-30 James SimmonsLU-8066 mdt: migrate procfs files to sysfs 79/34779/14
2019-07-27 Alex ZhuravlevLU-12090 utils: lfs rmfid 49/34449/40
2019-07-24 James SimmonsLU-9019 libcfs: avoid using HZ and msecs_to_jiffies() 20/35520/2
2019-07-20 Vitaly FertmanLU-10070 lod: SEL cleanup 14/35414/4
2019-07-20 NeilBrownLU-4423 lustre: convert rsi_sem to a spinlock. 79/35279/4
2019-07-12 Patrick FarrellLU-10070 lod: SEL: Implement basic spillover space 83/33783/24
2019-06-07 Lai SiyaoLU-11213 ptlrpc: intent_getattr fetches default LMV 02/34802/17
2019-06-01 Patrick FarrellLU-9846 lod: Add overstriping support 25/28425/43
2019-05-25 Vladimir SavelievLU-12206 mdt: mdt_init0 failure handling 24/34724/3
2019-05-21 Mikhail PershinLU-12212 mdt: fix SECCTX reply buffer handling 34/34734/9
2019-04-30 Oleg DrokinRevert "LU-11367 som: integrate LSOM with lfs find" 80/34780/2
2019-04-30 Qian YingjinLU-11367 som: integrate LSOM with lfs find 45/33545/10
2019-04-21 Lai SiyaoLU-12037 mdt: add option for cross-MDT rename 10/34410/7
2019-04-01 Sebastien BuissonLU-8955 ptlrpc: manage SELinux policy info for metadata ops 24/24424/38
2019-04-01 Bruno FacciniLU-9193 security: return security context for metadata ops 31/26831/20
2019-03-21 Ben EvansLU-12044 ptlrpc: Translate HABEO_ macros 75/34375/5
2019-03-21 Andriy SkulyshLU-11926 ldlm: Lost lease lock on migrate error 82/34182/4
2019-03-21 Jinshan XiongLU-11999 dne: performance improvement for file creation 91/34291/4
2019-03-21 Andriy SkulyshLU-10949 mdt: lost reference on mdt_md_root 81/34181/3
2019-02-11 Jinshan XiongLU-11811 mdt: Add a proc entry to set MDT to readonly 92/33892/3
2019-01-30 Patrick FarrellLU-11868 mdc: Improve xattr buffer allocations 59/34059/2
2018-11-27 Mikhail PershinLU-11595 mdt: fix read-on-open for big PAGE_SIZE 06/33606/7
2018-11-21 Lai SiyaoLU-8777 mdt: add parameter to disable remote/striped dir 98/24498/16
2018-11-17 Mikhail PershinLU-11102 ldlm: don't skip bl_ast for local lock 58/33458/10
2018-11-13 Alex ZhuravlevLU-10406 mdt: invalidate cache upon LDLM lock 94/31194/33
2018-10-29 Andreas DilgerLU-10030 idl: use proper ATTR/MDS_ATTR/MDS_OPEN flags 07/32107/6
2018-10-29 Bobi JamLU-11158 mdt: grow lvb buffer to hold layout 47/32847/11
2018-10-10 Alex ZhuravlevLU-11375 mdc: use old statfs format 62/33162/7
2018-10-05 Alex ZhuravlevLU-11164 ldlm: pass env to lvbo methods 32/32832/17
2018-10-05 Andreas DilgerLU-8174 misc: name open file handles as such 53/26953/17
2018-09-17 Lai SiyaoLU-4684 migrate: migrate striped directory 27/31427/26
2018-09-01 Alex ZhuravlevLU-10018 protocol: MDT as a statfs proxy 36/29136/91
2018-08-18 Mikhal PershinLU-11121 mdt: take discard lock at cleanup stage 30/29930/21
2018-08-09 Lai SiyaoLU-4684 migrate: pack lmv ea in migrate rpc 24/31424/14
2018-08-09 Mikhail PershinLU-10181 mdt: read on open for DoM files 11/23011/53
2018-08-06 Lai SiyaoLU-11148 ldlm: enable trybits for PDO lock 20/32820/4
2018-08-01 Lai SiyaoLU-11104 mdt: rename may cause deadlock 01/32701/9
2018-07-30 Qian YingjinLU-9538 mdt: Lazy size on MDT 60/29960/43
2018-07-18 John L. HammondLU-11014 mdt: remove enum mdt_it_code 58/32358/3
2018-07-03 Hongchao ZhangLU-7816 quota: add default quota setting support 06/32306/16
2018-06-07 John L. HammondLU-11014 mdt: intent handling simplification 57/32357/3
2018-06-07 Li XiLU-10472 osc: add T10PI support for RPC checksum 80/30980/37
2018-05-29 Lai SiyaoLU-4684 mdt: improve directory stripe lock 25/31425/9
2018-05-17 John L. HammondLU-10699 hsm: add local object storage to MDTs 58/31758/2
2018-05-06 Oleg DrokinLU-10985 mdt: properly handle unknown intent requests 37/32237/3
2018-03-08 Sebastien BuissonLU-10483 lustre: replace FMODE_{READ,WRITE} with MDS_... 24/30824/10
2018-03-03 James SimmonsLU-9325 obd: replace lprocfs_str_to_s64 39/30539/16
2018-03-03 Mikhal PershinLU-10318 dom: support DATA_VERSION IO type 49/30449/14
2018-02-14 Mikhal PershinLU-10181 mdt: high-priority request handling for DOM 68/29968/9
2018-02-06 Fan YongLU-10513 acl: prepare small buffer for ACL RPC reply 16/28116/11
2018-02-06 Emoly LiuLU-3397 lprocfs: create "export" /proc file on server 13/6713/17
2018-01-25 James SimmonsLU-9019 libcfs: remove cfs_time_XXX_64 wrappers 67/30867/2
2018-01-25 Mikhal PershinLU-10055 mdt: use max_mdsize in reply for layout intent 04/30004/10
2018-01-20 Mikhail PershinLU-10175 ldlm: remove obsoleted lock convert code 91/30491/3
2018-01-09 Andreas DilgerLU-10308 misc: update Intel copyright messages for... 41/30341/4
2017-12-20 John L. HammondRevert "LU-5216 hsm: cancel hsm actions running on... 15/30615/3
2017-12-17 Jinshan XiongLU-10269 ldlm: fix the issues introduced by try bits 46/30246/11
2017-12-17 vinayakswami harih... LU-5216 hsm: cancel hsm actions running on CT when... 38/24238/28
2017-12-01 Intel HPDD Gerrit... Merge "LU-9771 flr: Merge branch 'flr'"
2017-12-01 John L. HammondLU-8402 ldlm: assume OBD_CONNECT_IBITS 09/30009/3
2017-11-28 Jinshan XiongLU-9771 flr: Merge branch 'flr' 50/30250/2
2017-11-24 Jinshan XiongLU-9771 flr: resync support and test tool 96/29096/21
2017-11-22 James SimmonsLU-9019 mdt: migrate to 64 bit time 88/28788/15
2017-11-17 Jinshan XiongLU-9771 mdt: revise layout_change() to take md_layout_c... 90/29090/12
2017-11-17 Jinshan XiongLU-9771 ptlrpc: use lu_extent in layout_intent 87/29087/12
2017-11-17 Jinshan XiongLU-9771 clio: no glimpse for data immutable file 84/29084/12
2017-11-10 Mikhal PershinLU-3285 merge: 'dom' branch merging 51/29851/3
2017-10-21 Mikhal PershinLU-3285 mds: combine DoM bit with other IBITS 24/28024/28
2017-10-17 Mikhal PershinLU-3285 mdt: use generic grant code at MDT 21/28021/24
2017-10-17 Mikhal PershinLU-3285 mdc: add IO stats in mdc 19/28019/26
2017-10-17 Mikhal PershinLU-3285 mds: add IO locking to the MDC and MDT 18/28018/25
2017-10-17 Mikhal PershinLU-3285 mdt: IO request handling in MDT 13/28013/19
2017-10-02 Henri DoreauLU-8400 mdd: remove OBD_IOC_GET_MNTOPT 77/28777/2
2017-08-13 James SimmonsLU-6401 uapi: migrate remaining uapi headers to uapi... 46/25246/12
2017-07-19 Mikhal PershinLU-9184 ldlm: selective IBITS lock trying 62/25262/11
2017-06-19 Lai SiyaoLU-9504 ptlrpc: REP-ACK hr may race with trans commit 07/27207/9
2017-06-07 James SimmonsLU-6401 uapi: change lustre_cfg.h into a proper UAPI... 66/26966/8
2017-05-26 Oleg DrokinRevert "LU-8359 ldlm: Wrong evict during failover" 00/27300/2
2017-05-24 Frank ZagoLU-7988 hsm: change the cdt event flags to a simple... 89/22789/14
2017-05-20 James SimmonsLU-6401 uapi: turn lustre_param.h into a proper UAPI... 25/24325/13
2017-05-17 Frank ZagoLU-7988 hsm: change coordinator start/stop mechanisms 67/22667/24
2017-05-16 Andriy SkulyshLU-8359 ldlm: Wrong evict during failover 14/21114/7
2017-05-16 Fan YongLU-7473 acl: increase ACL entries limitation 90/19790/29
next